Duartina, Brazil
Current Conditions -  °F | °C
As of 11:00 PM on Monday 22 Dec 2014 (Local Time) from SBBU Reporting Station
Scattered Clouds Scattered Clouds  
Wind Chill: 72°   Ceiling: Unl
Heat Index: 72°   Visibility: 6mi
Dew Point: 72°   Wind: 7mph
Humidity: 100%   Direction: 90°E
Pressure: 29.91"   Gusts: NA
Location:  22.4°S, 49.42°W
Report Text: SBBU 230100Z 09006KT 9999 SCT040 22/22 Q1013
Loading
Personal Weather Stations






























Interactive Weather Map New forecast layout! Learn more

10-Day Weather Forecast

Advertisements
Track Severe Weather on mobile